sensor_id;sensor_type;location;lat;lon;timestamp;pressure;altitude;pressure_sealevel;temperature;humidity
46722;BME280;32455;43.430;23.136;2023-06-22T00:01:59;98410.22;;;19.92;100.00
46722;BME280;32455;43.430;23.136;2023-06-22T00:04:44;98400.13;;;19.83;100.00
46722;BME280;32455;43.430;23.136;2023-06-22T00:07:30;98414.59;;;19.83;100.00
46722;BME280;32455;43.430;23.136;2023-06-22T00:10:15;98410.81;;;19.54;100.00
46722;BME280;32455;43.430;23.136;2023-06-22T00:13:00;98418.19;;;19.63;100.00
46722;BME280;32455;43.430;23.136;2023-06-22T00:15:46;98413.50;;;19.74;100.00
46722;BME280;32455;43.430;23.136;2023-06-22T00:18:31;98421.41;;;19.86;100.00
46722;BME280;32455;43.430;23.136;2023-06-22T00:21:17;98420.38;;;19.66;100.00
46722;BME280;32455;43.430;23.136;2023-06-22T00:24:05;98427.44;;;19.72;100.00
46722;BME280;32455;43.430;23.136;2023-06-22T00:26:51;98425.78;;;19.76;100.00
46722;BME280;32455;43.430;23.136;2023-06-22T00:29:36;98422.25;;;19.50;100.00
46722;BME280;32455;43.430;23.136;2023-06-22T00:32:21;98421.19;;;19.46;100.00
46722;BME280;32455;43.430;23.136;2023-06-22T00:35:07;98438.88;;;19.54;100.00
46722;BME280;32455;43.430;23.136;2023-06-22T00:37:55;98437.53;;;19.46;100.00
46722;BME280;32455;43.430;23.136;2023-06-22T00:40:45;98432.66;;;19.23;100.00
46722;BME280;32455;43.430;23.136;2023-06-22T00:43:30;98429.34;;;19.06;100.00
46722;BME280;32455;43.430;23.136;2023-06-22T00:46:16;98423.09;;;19.05;100.00
46722;BME280;32455;43.430;23.136;2023-06-22T00:49:00;98431.81;;;19.27;100.00
46722;BME280;32455;43.430;23.136;2023-06-22T00:51:46;98412.72;;;19.22;100.00
46722;BME280;32455;43.430;23.136;2023-06-22T00:54:32;98417.38;;;19.22;100.00
46722;BME280;32455;43.430;23.136;2023-06-22T00:57:20;98419.28;;;19.21;100.00
46722;BME280;32455;43.430;23.136;2023-06-22T01:00:07;98418.47;;;19.26;100.00
46722;BME280;32455;43.430;23.136;2023-06-22T01:02:54;98422.81;;;19.22;100.00
46722;BME280;32455;43.430;23.136;2023-06-22T01:05:39;98418.19;;;19.17;100.00
46722;BME280;32455;43.430;23.136;2023-06-22T01:08:50;98428.53;;;19.05;100.00
46722;BME280;32455;43.430;23.136;2023-06-22T01:11:40;98438.31;;;18.91;100.00
46722;BME280;32455;43.430;23.136;2023-06-22T01:14:47;98443.78;;;18.91;100.00
46722;BME280;32455;43.430;23.136;2023-06-22T01:17:40;98455.75;;;18.85;100.00
46722;BME280;32455;43.430;23.136;2023-06-22T01:20:27;98459.81;;;18.82;100.00
46722;BME280;32455;43.430;23.136;2023-06-22T01:26:27;98458.44;;;18.80;100.00
46722;BME280;32455;43.430;23.136;2023-06-22T01:29:15;98460.94;;;18.86;100.00
46722;BME280;32455;43.430;23.136;2023-06-22T01:32:03;98452.38;;;18.62;100.00
46722;BME280;32455;43.430;23.136;2023-06-22T01:34:49;98461.63;;;18.61;100.00
46722;BME280;32455;43.430;23.136;2023-06-22T01:37:36;98453.19;;;18.52;100.00
46722;BME280;32455;43.430;23.136;2023-06-22T01:40:21;98445.50;;;18.39;100.00
46722;BME280;32455;43.430;23.136;2023-06-22T01:43:07;98448.56;;;18.53;100.00
46722;BME280;32455;43.430;23.136;2023-06-22T01:45:54;98454.03;;;18.63;100.00
46722;BME280;32455;43.430;23.136;2023-06-22T01:48:40;98449.94;;;18.66;100.00
46722;BME280;32455;43.430;23.136;2023-06-22T01:51:25;98441.50;;;18.62;100.00
46722;BME280;32455;43.430;23.136;2023-06-22T01:54:10;98432.00;;;18.65;100.00
46722;BME280;32455;43.430;23.136;2023-06-22T01:56:56;98414.28;;;18.57;100.00
46722;BME280;32455;43.430;23.136;2023-06-22T01:59:51;98430.59;;;18.47;100.00
46722;BME280;32455;43.430;23.136;2023-06-22T02:02:55;98430.81;;;18.35;100.00
46722;BME280;32455;43.430;23.136;2023-06-22T02:05:54;98437.63;;;18.38;100.00
46722;BME280;32455;43.430;23.136;2023-06-22T02:08:47;98440.38;;;18.53;100.00
46722;BME280;32455;43.430;23.136;2023-06-22T02:11:35;98450.25;;;18.69;100.00
46722;BME280;32455;43.430;23.136;2023-06-22T02:14:22;98445.38;;;18.71;100.00
46722;BME280;32455;43.430;23.136;2023-06-22T02:17:09;98440.66;;;18.51;100.00
46722;BME280;32455;43.430;23.136;2023-06-22T02:19:54;98450.97;;;18.44;100.00
46722;BME280;32455;43.430;23.136;2023-06-22T02:22:40;98457.72;;;18.32;100.00
46722;BME280;32455;43.430;23.136;2023-06-22T02:25:24;98461.34;;;18.47;100.00
46722;BME280;32455;43.430;23.136;2023-06-22T02:28:10;98464.06;;;18.47;100.00
46722;BME280;32455;43.430;23.136;2023-06-22T02:30:55;98472.72;;;18.34;100.00
46722;BME280;32455;43.430;23.136;2023-06-22T02:33:41;98471.59;;;18.30;100.00
46722;BME280;32455;43.430;23.136;2023-06-22T02:36:26;98471.91;;;18.39;100.00
46722;BME280;32455;43.430;23.136;2023-06-22T21:17:48;98396.38;;;22.71;100.00
46722;BME280;32455;43.430;23.136;2023-06-22T21:20:36;98393.84;;;22.74;100.00
46722;BME280;32455;43.430;23.136;2023-06-22T21:23:22;98382.91;;;22.74;100.00
46722;BME280;32455;43.430;23.136;2023-06-22T21:26:07;98388.88;;;22.77;100.00
46722;BME280;32455;43.430;23.136;2023-06-22T21:28:53;98386.22;;;22.71;100.00
46722;BME280;32455;43.430;23.136;2023-06-22T21:31:38;98373.69;;;22.65;100.00
46722;BME280;32455;43.430;23.136;2023-06-22T21:34:25;98387.59;;;22.69;100.00
46722;BME280;32455;43.430;23.136;2023-06-22T21:37:10;98393.97;;;22.64;100.00
46722;BME280;32455;43.430;23.136;2023-06-22T21:39:55;98387.03;;;22.53;100.00
46722;BME280;32455;43.430;23.136;2023-06-22T21:42:41;98386.00;;;22.49;100.00
46722;BME280;32455;43.430;23.136;2023-06-22T21:45:27;98376.66;;;22.31;100.00
46722;BME280;32455;43.430;23.136;2023-06-22T21:48:12;98378.19;;;22.18;100.00
46722;BME280;32455;43.430;23.136;2023-06-22T21:50:57;98367.91;;;22.05;100.00
46722;BME280;32455;43.430;23.136;2023-06-22T21:53:43;98352.81;;;21.89;100.00
46722;BME280;32455;43.430;23.136;2023-06-22T21:56:28;98373.34;;;21.86;100.00
46722;BME280;32455;43.430;23.136;2023-06-22T21:59:13;98376.47;;;21.74;100.00
46722;BME280;32455;43.430;23.136;2023-06-22T22:01:59;98370.19;;;21.74;100.00
46722;BME280;32455;43.430;23.136;2023-06-22T22:04:44;98372.41;;;21.96;100.00
46722;BME280;32455;43.430;23.136;2023-06-22T22:07:29;98374.41;;;22.09;100.00
46722;BME280;32455;43.430;23.136;2023-06-22T22:10:17;98374.88;;;21.97;100.00
46722;BME280;32455;43.430;23.136;2023-06-22T22:13:03;98370.44;;;21.78;100.00
46722;BME280;32455;43.430;23.136;2023-06-22T22:15:48;98363.16;;;21.68;100.00
46722;BME280;32455;43.430;23.136;2023-06-22T22:18:32;98373.63;;;21.61;100.00
46722;BME280;32455;43.430;23.136;2023-06-22T22:21:18;98364.66;;;21.55;100.00
46722;BME280;32455;43.430;23.136;2023-06-22T22:24:03;98369.72;;;21.43;100.00
46722;BME280;32455;43.430;23.136;2023-06-22T22:26:48;98374.19;;;21.29;100.00
46722;BME280;32455;43.430;23.136;2023-06-22T22:29:34;98374.16;;;21.34;100.00
46722;BME280;32455;43.430;23.136;2023-06-22T22:32:21;98373.81;;;21.11;100.00
46722;BME280;32455;43.430;23.136;2023-06-22T22:35:06;98379.94;;;20.93;100.00
46722;BME280;32455;43.430;23.136;2023-06-22T22:37:51;98374.31;;;20.79;100.00
46722;BME280;32455;43.430;23.136;2023-06-22T22:40:37;98374.41;;;20.64;100.00
46722;BME280;32455;43.430;23.136;2023-06-22T22:43:22;98371.16;;;20.62;100.00
46722;BME280;32455;43.430;23.136;2023-06-22T22:46:08;98370.13;;;20.47;100.00
46722;BME280;32455;43.430;23.136;2023-06-22T22:48:53;98365.22;;;20.44;100.00
46722;BME280;32455;43.430;23.136;2023-06-22T22:51:39;98363.59;;;20.48;100.00
46722;BME280;32455;43.430;23.136;2023-06-22T22:54:24;98365.03;;;20.31;100.00
46722;BME280;32455;43.430;23.136;2023-06-22T22:57:11;98353.91;;;20.17;100.00
46722;BME280;32455;43.430;23.136;2023-06-22T22:59:57;98365.72;;;20.02;100.00
46722;BME280;32455;43.430;23.136;2023-06-22T23:02:43;98357.72;;;20.16;100.00
46722;BME280;32455;43.430;23.136;2023-06-22T23:05:28;98357.25;;;20.09;100.00
46722;BME280;32455;43.430;23.136;2023-06-22T23:08:14;98356.44;;;20.03;100.00
46722;BME280;32455;43.430;23.136;2023-06-22T23:10:59;98356.13;;;20.10;100.00
46722;BME280;32455;43.430;23.136;2023-06-22T23:13:44;98360.78;;;20.09;100.00
46722;BME280;32455;43.430;23.136;2023-06-22T23:16:30;98351.25;;;20.01;100.00
46722;BME280;32455;43.430;23.136;2023-06-22T23:19:15;98354.56;;;19.93;100.00
46722;BME280;32455;43.430;23.136;2023-06-22T23:22:01;98363.53;;;19.99;100.00
46722;BME280;32455;43.430;23.136;2023-06-22T23:24:47;98357.59;;;19.92;100.00
46722;BME280;32455;43.430;23.136;2023-06-22T23:27:32;98343.38;;;19.90;100.00
46722;BME280;32455;43.430;23.136;2023-06-22T23:30:19;98343.38;;;19.90;100.00
46722;BME280;32455;43.430;23.136;2023-06-22T23:33:04;98341.00;;;19.73;100.00
46722;BME280;32455;43.430;23.136;2023-06-22T23:35:49;98344.00;;;19.71;100.00
46722;BME280;32455;43.430;23.136;2023-06-22T23:38:35;98331.97;;;19.83;100.00
46722;BME280;32455;43.430;23.136;2023-06-22T23:41:21;98328.13;;;19.89;100.00
46722;BME280;32455;43.430;23.136;2023-06-22T23:44:10;98333.56;;;19.94;100.00
46722;BME280;32455;43.430;23.136;2023-06-22T23:46:55;98337.38;;;19.93;100.00
46722;BME280;32455;43.430;23.136;2023-06-22T23:49:42;98330.31;;;19.87;100.00
46722;BME280;32455;43.430;23.136;2023-06-22T23:52:27;98336.00;;;20.00;100.00
46722;BME280;32455;43.430;23.136;2023-06-22T23:55:12;98337.00;;;20.15;100.00
46722;BME280;32455;43.430;23.136;2023-06-22T23:57:56;98334.03;;;20.11;100.00
